Hobart Regional Airport Hobart US
ICAO: KHBR
IATA: HBR
Category: Medium
Scheduled Services: No

Elevation: 1563 ft
TransAlt. 18000 ft.

Airport Communications:
ALTUS APP:125.1
ASOS:133.325
ALTUS DEP:125.1
MC ALESTER RDO:122.2
CTAF/UNICOM:122.8

KHBR Zoom In..

Runways:

(A) RW 03 length 5297 ft width 150 ft
---- / hdg 38

(B) RW 12 length 5295 ft width 150 ft
---- / hdg 128

(C) RW 17 length 5507 ft width 100 ft
---- / hdg 173

(D) RW 21 length 5297 ft width 150 ft
---- / hdg 218

(E) RW 30 length 5295 ft width 150 ft
---- / hdg 308

(F) RW 35 length 5507 ft width 100 ft
---- / hdg 353

Location; KHBR
Day. 14 / Time. 13.53 Zulu
* Altimeter: 29.93
* Temperature: 23° c. 73.4°f.
* Wind from: 170° Speed 07 kn.
Dewpoint: 22° c.
Visibility: 6 Statute Miles.
Clouds: Few 600 ft.
Conditions: Mist.

KHBR 141353Z AUTO 17007KT 6SM BR FEW006 23/22 A2993 RMK AO2 SLP120 T02330217


Wind From 170°
Speed 07 kn.

 
 
jpsmedia.com for Web Design worldairports.se 2018   terms of use